Terminal Aerodrome Forecast
Issued by NWS Sterling, VA

Current Version | Previous Version | Graphics & Text | Print | Product List | Glossary On
Versions: 1 2 3 4 5 6 7 8 9 10 11 12 13 14 15 16 17 18 19 20 21 22
000
FTUS41 KLWX 191132
TAFDCA
TAF
KDCA 191132Z 1912/2018 30009KT P6SM -SHRA OVC050
     FM191400 28014G29KT P6SM BKN040
     FM191700 30017G36KT P6SM BKN040
     FM192300 31018G35KT P6SM SCT050
     FM200100 31016G31KT P6SM SKC
     FM200600 31012G24KT P6SM SKC=

USA.gov is the U.S. government's official web portal to all federal, state and local government web resources and services.